Anchor, Texas
Current Conditions -  °F | °C
As of 1:53 PM on Monday 24 Nov 2014 (Local Time) from KLBX Reporting Station
Clear Clear  
Wind Chill: 64°   Ceiling: Unl
Heat Index: 64°   Visibility: 10mi
Dew Point: 35°   Wind: 16mph
Humidity: 34%   Direction: 340°NNW
Pressure: 30"   Gusts: 22mph
Location:  29.1898°N, 95.4754°W
Report Text: KLBX 241953Z AUTO 34014G19KT 10SM CLR 18/02 A3000 RMK AO2 SLP159 T01780017
Loading
Personal Weather Stations






























Interactive Weather Map New forecast layout! Learn more

10-Day Weather Forecast

Advertisements
Track Severe Weather on mobile